Airfield :
LOGIN :

Register | Disclaimer

   EN    FR    IT 

 










Legend :    VFR   Marginal VFR   IFR   Intensive IFR   Very Intensive IFR
Visi :
Ceiling :
>= 8 km
>= 3000ft
5 to 8 km
1000 to 3000 ft
1500m to 5 km
500 to 1000 ft
800 to 1500m
200 to 500 ft
< 800m
< 200 ft
Symbols :   Thunderstorms  Fog  Heavy snow  Heavy precipitations  Wind > 20 kt
SIGMETs :     Misc.  Thunderstorms  Icing  Turbulence  Mountain Waves  Volcanic Ashes







- Airport Elevation : 1947 ft
- IATA code : OBF


EDMO - Oberpfaffenhofen

CURRENT METAR :
  • 251420Z 00000KT 9999 -RA FEW020 BKN048 11/08 Q1007

EXPIRED METARs :
  • 251350Z 00000KT 9999 -RA SCT020 BKN050 11/08 Q1007
  • 251320Z 26010KT 9999 -RA SCT021 BKN050 11/08 Q1007
  • 251250Z 26008KT 9999 -RA SCT020 BKN050 12/08 Q1007
  • 251220Z 27010KT 9999 SCT022 BKN050 12/07 Q1007
  • 251150Z 29007KT 250V320 9999 SCT025 BKN052 12/07 Q1008

TAF TAF EDMO
Valid from the 25 at 12:00 until the 25 at 21:00 UTC


251100Z 2512/2521 26010KT 9999 SCT030 BKN050
TEMPO 2512/2515 26015G25KT SHRA SCT020 BKN035TCU
PROB40
TEMPO 2515/2521 RA
No reported NOTAMs for that airfield.
1 SIGMET reported for the München FIR (EDMM) :
 
Embedded thunderstorms
EDMM SIGMET 1 VALID 251256/251500 EDZM
EDMM MUNCHEN FIR EMBD TS OBS S OF N49 AND W OF E011 TOP FL240 STNR WKN=



MET'MAP, your aeronautical weather chart ! - Copyright ORBIFLY December 2007 - Disclaimer

ORBIFLY MET'MAP TEAM :

Programming & Development : Alexandra Zaïnal
Concept & Development : Baudouin d'Aumeries
Co-Development & Prog : Marc-Olivier Méhu
Technical & hardware support : Manuel Goepfert

Contact : metmap@orbifly.com




SOURCES & CREDITS :

   NOAA